Pinedale, Mississippi
Current Conditions -  °F | °C
As of 5:55 AM on Sunday 23 Nov 2014 (Local Time) from KUOX Reporting Station
Haze Haze  
Wind Chill: 55°   Ceiling: 600
Heat Index: 55°   Visibility: 4mi
Dew Point: 54°   Wind: 8mph
Humidity: 94%   Direction: 140°SE
Pressure: 29.8"   Gusts: 17mph
Location:  34.4346°N, 89.1867°W
Report Text: KUOX 231155Z AUTO 14007G15KT 4SM BR OVC006 13/12 A2980 RMK AO2 PWINO PNO
Loading
Personal Weather Stations






























Interactive Weather Map New forecast layout! Learn more

10-Day Weather Forecast

Advertisements
Track Severe Weather on mobile